PWSweather.com
Personal Weather Stations
Station Observations
KB2SBX
Sugarloaf, Sugarloaf, PA 18249

SugarloafSugarloaf, PA 18249

Lat: 41.0126685, Lon: -76.1082041

Elevation: 1030

Station Type: WS-2080

http://sugarloafpaweather.webng.com/weather.shtml

High Low Average
Temperature 85.3°F29.6°F 66.0°F18.9°F 74.2°F23.4°F
Dew Point 75.1°F23.9°F 65.8°F18.8°F 69.9°F21.1°F
Winds 2.2 mph SE3.5 mph SE Calm Calm 0.3 mph 0.5 mph
Wind Gusts 8.3 mph13.4 mph -- 1.5 mph2.4 mph
Humidity 100% 54% 88%
Pressure 29.89 in1012.20 in 29.62 in1003.00 in -
Precipitation 1.88 in47.80 in - -
Hour Temp Dew Point Humidity Winds Wind Gusts Pressure Precip Precip Rate Daily Precip Total
12:00 AM 72.7°F22.6°C 71.5°F21.9°C 96% Calm Calm -- 29.86 in1011.2 mb 0.00 in0.0 mm 0.00 in0.0 mm 0.00 in0.0 mm
12:10 AM 72.7°F22.6°C 71.5°F21.9°C 96% Calm Calm -- 29.87 in1011.5 mb 0.00 in0.0 mm 0.00 in0.0 mm 0.00 in0.0 mm
12:20 AM 72.7°F22.6°C 71.5°F21.9°C 96% Calm Calm -- 29.87 in1011.5 mb 0.00 in0.0 mm 0.00 in0.0 mm 0.00 in0.0 mm
12:30 AM 72.7°F22.6°C 71.5°F21.9°C 96% Calm Calm -- 29.87 in1011.5 mb 0.00 in0.0 mm 0.00 in0.0 mm 0.00 in0.0 mm
12:40 AM 72.5°F22.5°C 71.3°F21.8°C 96% Calm Calm -- 29.87 in1011.5 mb 0.00 in0.0 mm 0.00 in0.0 mm 0.00 in0.0 mm
12:50 AM 72.3°F22.4°C 71.2°F21.8°C 96% Calm Calm -- 29.87 in1011.5 mb 0.00 in0.0 mm 0.00 in0.0 mm 0.00 in0.0 mm
01:00 AM 72.3°F22.4°C 71.2°F21.8°C 96% Calm Calm -- 29.88 in1011.9 mb 0.00 in0.0 mm 0.00 in0.0 mm 0.00 in0.0 mm
01:10 AM 72.1°F22.3°C 71.3°F21.8°C 97% Calm Calm -- 29.88 in1011.9 mb 0.00 in0.0 mm 0.00 in0.0 mm 0.00 in0.0 mm
01:20 AM 72.0°F22.2°C 71.1°F21.7°C 97% Calm Calm -- 29.89 in1012.2 mb 0.00 in0.0 mm 0.00 in0.0 mm 0.00 in0.0 mm
01:30 AM 71.8°F22.1°C 70.9°F21.6°C 97% Calm Calm -- 29.89 in1012.2 mb 0.00 in0.0 mm 0.00 in0.0 mm 0.00 in0.0 mm
02:20 AM 70.7°F21.5°C 70.7°F21.5°C 100% Calm Calm -- 29.89 in1012.2 mb 0.00 in0.0 mm 0.00 in0.0 mm 0.00 in0.0 mm
02:30 AM 70.5°F21.4°C 70.6°F21.4°C 100% Calm Calm -- 29.89 in1012.2 mb 0.00 in0.0 mm 0.00 in0.0 mm 0.00 in0.0 mm
02:40 AM 70.5°F21.4°C 70.6°F21.4°C 100% Calm Calm -- 29.88 in1011.9 mb 0.00 in0.0 mm 0.00 in0.0 mm 0.00 in0.0 mm
02:50 AM 70.3°F21.3°C 70.4°F21.3°C 100% Calm Calm 0.7 mph1.1 kmh 29.88 in1011.9 mb 0.00 in0.0 mm 0.00 in0.0 mm 0.00 in0.0 mm
03:00 AM 70.2°F21.2°C 70.2°F21.2°C 100% Calm Calm -- 29.88 in1011.9 mb 0.00 in0.0 mm 0.00 in0.0 mm 0.00 in0.0 mm
03:10 AM 69.8°F21.0°C 69.8°F21.0°C 100% Calm Calm -- 29.88 in1011.9 mb 0.00 in0.0 mm 0.00 in0.0 mm 0.00 in0.0 mm
03:50 AM 69.3°F20.7°C 69.0°F20.6°C 99% Calm Calm -- 29.87 in1011.5 mb 0.00 in0.0 mm 0.00 in0.0 mm 0.00 in0.0 mm
04:00 AM 69.3°F20.7°C 69.0°F20.6°C 99% Calm Calm -- 29.86 in1011.2 mb 0.00 in0.0 mm 0.00 in0.0 mm 0.00 in0.0 mm
04:10 AM 68.9°F20.5°C 68.6°F20.3°C 99% Calm Calm -- 29.86 in1011.2 mb 0.00 in0.0 mm 0.00 in0.0 mm 0.00 in0.0 mm
04:30 AM 68.9°F20.5°C 68.6°F20.3°C 99% Calm Calm -- 29.86 in1011.2 mb 0.00 in0.0 mm 0.00 in0.0 mm 0.00 in0.0 mm
04:40 AM 68.5°F20.3°C 68.3°F20.2°C 99% Calm Calm -- 29.86 in1011.2 mb 0.00 in0.0 mm 0.00 in0.0 mm 0.00 in0.0 mm
04:50 AM 68.2°F20.1°C 67.9°F19.9°C 99% Calm Calm -- 29.86 in1011.2 mb 0.00 in0.0 mm 0.00 in0.0 mm 0.00 in0.0 mm
05:00 AM 68.0°F20.0°C 67.7°F19.8°C 99% Calm Calm -- 29.87 in1011.5 mb 0.00 in0.0 mm 0.00 in0.0 mm 0.00 in0.0 mm
06:10 AM 66.6°F19.2°C 66.3°F19.1°C 99% Calm Calm -- 29.87 in1011.5 mb 0.00 in0.0 mm 0.00 in0.0 mm 0.00 in0.0 mm
06:20 AM 66.4°F19.1°C 66.1°F18.9°C 99% Calm Calm -- 29.87 in1011.5 mb 0.00 in0.0 mm 0.00 in0.0 mm 0.00 in0.0 mm
06:30 AM 66.4°F19.1°C 66.1°F18.9°C 99% Calm Calm -- 29.88 in1011.9 mb 0.00 in0.0 mm 0.00 in0.0 mm 0.00 in0.0 mm
06:40 AM 66.0°F18.9°C 65.8°F18.8°C 99% Calm Calm -- 29.88 in1011.9 mb 0.00 in0.0 mm 0.00 in0.0 mm 0.00 in0.0 mm
06:50 AM 66.2°F19.0°C 65.9°F18.8°C 99% Calm Calm -- 29.89 in1012.2 mb 0.00 in0.0 mm 0.00 in0.0 mm 0.00 in0.0 mm
07:00 AM 66.7°F19.3°C 66.5°F19.2°C 99% Calm Calm -- 29.88 in1011.9 mb 0.00 in0.0 mm 0.00 in0.0 mm 0.00 in0.0 mm
07:10 AM 67.5°F19.7°C 67.2°F19.6°C 99% Calm Calm 0.7 mph1.1 kmh 29.88 in1011.9 mb 0.00 in0.0 mm 0.00 in0.0 mm 0.00 in0.0 mm
07:20 AM 67.8°F19.9°C 67.6°F19.8°C 99% Calm Calm 0.7 mph1.1 kmh 29.87 in1011.5 mb 0.00 in0.0 mm 0.00 in0.0 mm 0.00 in0.0 mm
07:30 AM 67.8°F19.9°C 67.6°F19.8°C 99% Calm Calm 1.6 mph2.6 kmh 29.87 in1011.5 mb 0.00 in0.0 mm 0.00 in0.0 mm 0.00 in0.0 mm
07:40 AM 68.2°F20.1°C 67.9°F19.9°C 99% Calm Calm 0.7 mph1.1 kmh 29.87 in1011.5 mb 0.00 in0.0 mm 0.00 in0.0 mm 0.00 in0.0 mm
07:50 AM 68.7°F20.4°C 68.5°F20.3°C 99% Calm Calm 0.7 mph1.1 kmh 29.88 in1011.9 mb 0.00 in0.0 mm 0.00 in0.0 mm 0.00 in0.0 mm
08:00 AM 69.4°F20.8°C 69.2°F20.7°C 99% Calm Calm 0.7 mph1.1 kmh 29.88 in1011.9 mb 0.00 in0.0 mm 0.00 in0.0 mm 0.00 in0.0 mm
08:10 AM 70.2°F21.2°C 70.2°F21.2°C 100% Calm Calm -- 29.88 in1011.9 mb 0.00 in0.0 mm 0.00 in0.0 mm 0.00 in0.0 mm
08:20 AM 70.7°F21.5°C 70.7°F21.5°C 100% Calm Calm 0.7 mph1.1 kmh 29.88 in1011.9 mb 0.00 in0.0 mm 0.00 in0.0 mm 0.00 in0.0 mm
08:30 AM 71.1°F21.7°C 71.1°F21.7°C 100% Calm Calm 1.6 mph2.6 kmh 29.87 in1011.5 mb 0.00 in0.0 mm 0.00 in0.0 mm 0.00 in0.0 mm
08:40 AM 71.2°F21.8°C 71.3°F21.8°C 100% Calm Calm 1.6 mph2.6 kmh 29.87 in1011.5 mb 0.00 in0.0 mm 0.00 in0.0 mm 0.00 in0.0 mm
08:50 AM 71.8°F22.1°C 70.9°F21.6°C 97% Calm Calm -- 29.87 in1011.5 mb 0.00 in0.0 mm 0.00 in0.0 mm 0.00 in0.0 mm
09:00 AM 72.1°F22.3°C 71.3°F21.8°C 97% 0.7 mph SE1.1 kmh SE 2.2 mph3.5 kmh 29.87 in1011.5 mb 0.00 in0.0 mm 0.00 in0.0 mm 0.00 in0.0 mm
09:10 AM 73.2°F22.9°C 72.4°F22.4°C 97% Calm Calm 2.2 mph3.5 kmh 29.87 in1011.5 mb 0.00 in0.0 mm 0.00 in0.0 mm 0.00 in0.0 mm
09:20 AM 74.3°F23.5°C 74.1°F23.4°C 99% Calm Calm 2.2 mph3.5 kmh 29.87 in1011.5 mb 0.00 in0.0 mm 0.00 in0.0 mm 0.00 in0.0 mm
09:30 AM 75.4°F24.1°C 75.1°F23.9°C 99% 2.2 mph SE3.5 kmh SE 3.8 mph6.1 kmh 29.86 in1011.2 mb 0.00 in0.0 mm 0.00 in0.0 mm 0.00 in0.0 mm
09:40 AM 77.2°F25.1°C 75.1°F23.9°C 93% 1.6 mph SE2.6 kmh SE 3.1 mph5.0 kmh 29.86 in1011.2 mb 0.00 in0.0 mm 0.00 in0.0 mm 0.00 in0.0 mm
09:50 AM 77.5°F25.3°C 73.8°F23.2°C 88% 0.7 mph SE1.1 kmh SE 3.1 mph5.0 kmh 29.86 in1011.2 mb 0.00 in0.0 mm 0.00 in0.0 mm 0.00 in0.0 mm
10:00 AM 77.7°F25.4°C 72.6°F22.6°C 84% 1.6 mph SSE2.6 kmh SSE 2.2 mph3.5 kmh 29.86 in1011.2 mb 0.00 in0.0 mm 0.00 in0.0 mm 0.00 in0.0 mm
10:10 AM 77.9°F25.5°C 72.4°F22.4°C 83% Calm Calm 2.2 mph3.5 kmh 29.86 in1011.2 mb 0.00 in0.0 mm 0.00 in0.0 mm 0.00 in0.0 mm
10:20 AM 77.9°F25.5°C 72.4°F22.4°C 83% 0.7 mph S1.1 kmh S 2.2 mph3.5 kmh 29.86 in1011.2 mb 0.00 in0.0 mm 0.00 in0.0 mm 0.00 in0.0 mm
10:30 AM 78.4°F25.8°C 71.8°F22.1°C 80% Calm Calm 2.2 mph3.5 kmh 29.86 in1011.2 mb 0.00 in0.0 mm 0.00 in0.0 mm 0.00 in0.0 mm
10:40 AM 79.3°F26.3°C 71.6°F22.0°C 77% 0.7 mph NW1.1 kmh NW 2.2 mph3.5 kmh 29.85 in1010.8 mb 0.00 in0.0 mm 0.00 in0.0 mm 0.00 in0.0 mm
10:50 AM 80.4°F26.9°C 72.6°F22.6°C 77% 1.6 mph NE2.6 kmh NE 2.2 mph3.5 kmh 29.84 in1010.5 mb 0.00 in0.0 mm 0.00 in0.0 mm 0.00 in0.0 mm
11:00 AM 81.0°F27.2°C 69.9°F21.1°C 69% Calm Calm 2.2 mph3.5 kmh 29.84 in1010.5 mb 0.00 in0.0 mm 0.00 in0.0 mm 0.00 in0.0 mm
11:10 AM 81.9°F27.7°C 70.7°F21.5°C 69% 2.2 mph WNW3.5 kmh WNW 3.8 mph6.1 kmh 29.84 in1010.5 mb 0.00 in0.0 mm 0.00 in0.0 mm 0.00 in0.0 mm
11:20 AM 82.2°F27.9°C 71.5°F21.9°C 70% 2.2 mph W3.5 kmh W 3.8 mph6.1 kmh 29.83 in1010.2 mb 0.00 in0.0 mm 0.00 in0.0 mm 0.00 in0.0 mm
11:30 AM 82.0°F27.8°C 69.6°F20.9°C 66% 1.6 mph ESE2.6 kmh ESE 3.8 mph6.1 kmh 29.83 in1010.2 mb 0.00 in0.0 mm 0.00 in0.0 mm 0.00 in0.0 mm
11:40 AM 82.2°F27.9°C 69.3°F20.7°C 65% 2.2 mph E3.5 kmh E 3.1 mph5.0 kmh 29.82 in1009.8 mb 0.00 in0.0 mm 0.00 in0.0 mm 0.00 in0.0 mm
11:50 AM 82.6°F28.1°C 69.2°F20.7°C 64% Calm Calm 3.1 mph5.0 kmh 29.82 in1009.8 mb 0.00 in0.0 mm 0.00 in0.0 mm 0.00 in0.0 mm
12:00 PM 82.4°F28.0°C 70.0°F21.1°C 66% Calm Calm 2.2 mph3.5 kmh 29.81 in1009.5 mb 0.00 in0.0 mm 0.00 in0.0 mm 0.00 in0.0 mm
12:10 PM 81.9°F27.7°C 68.1°F20.1°C 63% 0.7 mph SE1.1 kmh SE 3.1 mph5.0 kmh 29.81 in1009.5 mb 0.00 in0.0 mm 0.00 in0.0 mm 0.00 in0.0 mm
12:20 PM 82.2°F27.9°C 70.7°F21.5°C 68% 2.2 mph SE3.5 kmh SE 3.8 mph6.1 kmh 29.81 in1009.5 mb 0.00 in0.0 mm 0.00 in0.0 mm 0.00 in0.0 mm
12:30 PM 83.1°F28.4°C 69.3°F20.7°C 63% 1.6 mph N2.6 kmh N 3.1 mph5.0 kmh 29.80 in1009.1 mb 0.00 in0.0 mm 0.00 in0.0 mm 0.00 in0.0 mm
12:40 PM 83.1°F28.4°C 69.7°F20.9°C 64% 1.6 mph N2.6 kmh N 3.8 mph6.1 kmh 29.80 in1009.1 mb 0.00 in0.0 mm 0.00 in0.0 mm 0.00 in0.0 mm
12:50 PM 82.6°F28.1°C 67.8°F19.9°C 61% 2.2 mph ESE3.5 kmh ESE 5.4 mph8.7 kmh 29.79 in1008.8 mb 0.00 in0.0 mm 0.00 in0.0 mm 0.00 in0.0 mm
01:00 PM 83.3°F28.5°C 68.0°F20.0°C 60% 0.7 mph ESE1.1 kmh ESE 3.8 mph6.1 kmh 29.78 in1008.5 mb 0.00 in0.0 mm 0.00 in0.0 mm 0.00 in0.0 mm
01:10 PM 83.7°F28.7°C 66.4°F19.1°C 56% 0.7 mph NNE1.1 kmh NNE 4.5 mph7.2 kmh 29.78 in1008.5 mb 0.00 in0.0 mm 0.00 in0.0 mm 0.00 in0.0 mm
01:20 PM 84.7°F29.3°C 68.9°F20.5°C 59% 0.7 mph SE1.1 kmh SE 2.2 mph3.5 kmh 29.78 in1008.5 mb 0.00 in0.0 mm 0.00 in0.0 mm 0.00 in0.0 mm
01:30 PM 85.3°F29.6°C 66.8°F19.3°C 54% 0.7 mph S1.1 kmh S 4.5 mph7.2 kmh 29.78 in1008.5 mb 0.00 in0.0 mm 0.00 in0.0 mm 0.00 in0.0 mm
01:40 PM 84.6°F29.2°C 67.2°F19.6°C 56% Calm Calm 2.2 mph3.5 kmh 29.77 in1008.1 mb 0.00 in0.0 mm 0.00 in0.0 mm 0.00 in0.0 mm
01:50 PM 84.2°F29.0°C 69.8°F21.0°C 62% 0.7 mph NNE1.1 kmh NNE 3.1 mph5.0 kmh 29.77 in1008.1 mb 0.00 in0.0 mm 0.00 in0.0 mm 0.00 in0.0 mm
02:00 PM 84.2°F29.0°C 70.3°F21.3°C 63% 0.7 mph N1.1 kmh N 3.8 mph6.1 kmh 29.76 in1007.8 mb 0.00 in0.0 mm 0.00 in0.0 mm 0.00 in0.0 mm
02:10 PM 84.2°F29.0°C 71.2°F21.8°C 65% 0.7 mph SE1.1 kmh SE 2.2 mph3.5 kmh 29.76 in1007.8 mb 0.00 in0.0 mm 0.00 in0.0 mm 0.00 in0.0 mm
02:20 PM 84.0°F28.9°C 71.0°F21.7°C 65% Calm Calm 2.2 mph3.5 kmh 29.76 in1007.8 mb 0.00 in0.0 mm 0.00 in0.0 mm 0.00 in0.0 mm
02:30 PM 84.4°F29.1°C 71.8°F22.1°C 66% 0.7 mph NNW1.1 kmh NNW 3.1 mph5.0 kmh 29.75 in1007.5 mb 0.00 in0.0 mm 0.00 in0.0 mm 0.00 in0.0 mm
02:40 PM 84.6°F29.2°C 69.7°F20.9°C 61% Calm Calm 4.5 mph7.2 kmh 29.75 in1007.5 mb 0.00 in0.0 mm 0.00 in0.0 mm 0.00 in0.0 mm
02:50 PM 84.7°F29.3°C 69.9°F21.1°C 61% 0.7 mph ENE1.1 kmh ENE 3.1 mph5.0 kmh 29.75 in1007.5 mb 0.00 in0.0 mm 0.00 in0.0 mm 0.00 in0.0 mm
03:00 PM 84.0°F28.9°C 70.1°F21.2°C 63% 1.6 mph SE2.6 kmh SE 3.8 mph6.1 kmh 29.75 in1007.5 mb 0.00 in0.0 mm 0.00 in0.0 mm 0.00 in0.0 mm
03:10 PM 83.5°F28.6°C 69.1°F20.6°C 62% Calm Calm 3.1 mph5.0 kmh 29.74 in1007.1 mb 0.00 in0.0 mm 0.00 in0.0 mm 0.00 in0.0 mm
03:20 PM 83.1°F28.4°C 70.6°F21.4°C 66% Calm Calm 2.2 mph3.5 kmh 29.74 in1007.1 mb 0.00 in0.0 mm 0.00 in0.0 mm 0.00 in0.0 mm
03:30 PM 82.4°F28.0°C 70.8°F21.6°C 68% Calm Calm 2.2 mph3.5 kmh 29.73 in1006.8 mb 0.00 in0.0 mm 0.00 in0.0 mm 0.00 in0.0 mm
03:40 PM 81.9°F27.7°C 71.2°F21.8°C 70% Calm Calm 1.6 mph2.6 kmh 29.72 in1006.4 mb 0.00 in0.0 mm 0.00 in0.0 mm 0.00 in0.0 mm
03:50 PM 81.7°F27.6°C 72.2°F22.3°C 73% Calm Calm 0.7 mph1.1 kmh 29.71 in1006.1 mb 0.00 in0.0 mm 0.00 in0.0 mm 0.00 in0.0 mm
04:00 PM 81.3°F27.4°C 73.1°F22.8°C 76% Calm Calm 0.7 mph1.1 kmh 29.70 in1005.8 mb 0.00 in0.0 mm 0.00 in0.0 mm 0.00 in0.0 mm
04:10 PM 80.6°F27.0°C 73.2°F22.9°C 78% Calm Calm 0.7 mph1.1 kmh 29.69 in1005.4 mb 0.00 in0.0 mm 0.00 in0.0 mm 0.00 in0.0 mm
04:20 PM 80.4°F26.9°C 73.7°F23.2°C 80% Calm Calm 1.6 mph2.6 kmh 29.68 in1005.1 mb 0.00 in0.0 mm 0.00 in0.0 mm 0.00 in0.0 mm
04:30 PM 79.9°F26.6°C 73.6°F23.1°C 81% Calm Calm 0.7 mph1.1 kmh 29.67 in1004.7 mb 0.00 in0.0 mm 0.00 in0.0 mm 0.00 in0.0 mm
04:40 PM 79.2°F26.2°C 71.8°F22.1°C 78% 0.7 mph ESE1.1 kmh ESE 8.3 mph13.4 kmh 29.67 in1004.7 mb 0.00 in0.0 mm 0.00 in0.0 mm 0.00 in0.0 mm
04:50 PM 78.1°F25.6°C 71.1°F21.7°C 79% 0.7 mph SW1.1 kmh SW 5.4 mph8.7 kmh 29.66 in1004.4 mb 0.00 in0.0 mm 0.00 in0.0 mm 0.00 in0.0 mm
05:00 PM 76.5°F24.7°C 70.2°F21.2°C 81% 0.7 mph W1.1 kmh W 3.8 mph6.1 kmh 29.66 in1004.4 mb 0.00 in0.0 mm 0.00 in0.0 mm 0.00 in0.0 mm
05:10 PM 74.7°F23.7°C 69.2°F20.7°C 83% 0.7 mph SE1.1 kmh SE 3.8 mph6.1 kmh 29.65 in1004.1 mb 0.00 in0.0 mm 0.00 in0.0 mm 0.00 in0.0 mm
05:20 PM 73.8°F23.2°C 69.0°F20.6°C 85% Calm Calm 3.1 mph5.0 kmh 29.64 in1003.7 mb 0.00 in0.0 mm 0.00 in0.0 mm 0.00 in0.0 mm
05:30 PM 73.0°F22.8°C 69.3°F20.7°C 88% 0.7 mph N1.1 kmh N 2.2 mph3.5 kmh 29.63 in1003.4 mb 0.00 in0.0 mm 0.00 in0.0 mm 0.00 in0.0 mm
05:40 PM 72.9°F22.7°C 69.5°F20.8°C 89% Calm Calm 1.6 mph2.6 kmh 29.63 in1003.4 mb 0.00 in0.0 mm 0.00 in0.0 mm 0.00 in0.0 mm
05:50 PM 72.5°F22.5°C 69.4°F20.8°C 90% Calm Calm 1.6 mph2.6 kmh 29.63 in1003.4 mb 0.00 in0.0 mm 0.00 in0.0 mm 0.00 in0.0 mm
06:00 PM 72.1°F22.3°C 69.4°F20.8°C 91% 0.7 mph W1.1 kmh W 1.6 mph2.6 kmh 29.63 in1003.4 mb 0.01 in0.3 mm 0.01 in0.3 mm 0.01 in0.3 mm
06:10 PM 72.0°F22.2°C 69.5°F20.8°C 92% Calm Calm 1.6 mph2.6 kmh 29.64 in1003.7 mb 0.03 in0.8 mm 0.12 in3.0 mm 0.03 in0.8 mm
06:20 PM 71.8°F22.1°C 69.7°F20.9°C 93% Calm Calm 1.6 mph2.6 kmh 29.65 in1004.1 mb 0.06 in1.5 mm 0.18 in4.6 mm 0.06 in1.5 mm
06:30 PM 71.4°F21.9°C 69.6°F20.9°C 94% 0.7 mph E1.1 kmh E 1.6 mph2.6 kmh 29.64 in1003.7 mb 0.13 in3.3 mm 0.42 in10.7 mm 0.13 in3.3 mm
06:40 PM 70.7°F21.5°C 68.9°F20.5°C 94% Calm Calm 1.6 mph2.6 kmh 29.64 in1003.7 mb 0.19 in4.8 mm 0.36 in9.1 mm 0.19 in4.8 mm
06:50 PM 70.3°F21.3°C 68.9°F20.5°C 95% Calm Calm 0.7 mph1.1 kmh 29.64 in1003.7 mb 0.23 in5.8 mm 0.24 in6.1 mm 0.23 in5.8 mm
07:00 PM 70.3°F21.3°C 68.9°F20.5°C 95% Calm Calm -- 29.63 in1003.4 mb 0.23 in5.8 mm 0.00 in0.0 mm 0.24 in6.1 mm
07:10 PM 69.8°F21.0°C 68.3°F20.2°C 95% Calm Calm 2.2 mph3.5 kmh 29.63 in1003.4 mb 0.22 in5.6 mm 0.00 in0.0 mm 0.25 in6.4 mm
07:20 PM 69.6°F20.9°C 68.8°F20.4°C 97% Calm Calm 1.6 mph2.6 kmh 29.62 in1003.0 mb 0.19 in4.8 mm 0.00 in0.0 mm 0.25 in6.4 mm
07:30 PM 69.8°F21.0°C 68.9°F20.5°C 97% Calm Calm 1.6 mph2.6 kmh 29.62 in1003.0 mb 0.11 in2.8 mm 0.00 in0.0 mm 0.25 in6.4 mm
07:40 PM 69.8°F21.0°C 68.9°F20.5°C 97% Calm Calm 1.6 mph2.6 kmh 29.62 in1003.0 mb 0.06 in1.5 mm 0.00 in0.0 mm 0.25 in6.4 mm
07:50 PM 69.8°F21.0°C 69.8°F21.0°C 100% Calm Calm 0.7 mph1.1 kmh 29.63 in1003.4 mb 0.02 in0.5 mm 0.00 in0.0 mm 0.25 in6.4 mm
08:00 PM 69.8°F21.0°C 69.8°F21.0°C 100% Calm Calm 0.7 mph1.1 kmh 29.62 in1003.0 mb 0.01 in0.3 mm 0.00 in0.0 mm 0.25 in6.4 mm
08:10 PM 69.8°F21.0°C 69.8°F21.0°C 100% Calm Calm -- 29.62 in1003.0 mb 0.03 in0.8 mm 0.12 in3.0 mm 0.27 in6.9 mm
08:20 PM 69.8°F21.0°C 69.8°F21.0°C 100% Calm Calm -- 29.62 in1003.0 mb 0.03 in0.8 mm 0.00 in0.0 mm 0.28 in7.1 mm
08:30 PM 69.6°F20.9°C 69.4°F20.8°C 99% Calm Calm 1.6 mph2.6 kmh 29.62 in1003.0 mb 0.05 in1.3 mm 0.12 in3.0 mm 0.30 in7.6 mm
08:40 PM 69.6°F20.9°C 69.4°F20.8°C 99% Calm Calm 0.7 mph1.1 kmh 29.62 in1003.0 mb 0.05 in1.3 mm 0.00 in0.0 mm 0.30 in7.6 mm
08:50 PM 69.6°F20.9°C 69.4°F20.8°C 99% Calm Calm 0.7 mph1.1 kmh 29.63 in1003.4 mb 0.06 in1.5 mm 0.06 in1.5 mm 0.30 in7.6 mm
09:00 PM 69.6°F20.9°C 69.4°F20.8°C 99% Calm Calm 0.7 mph1.1 kmh 29.63 in1003.4 mb 0.05 in1.3 mm 0.00 in0.0 mm 0.30 in7.6 mm
09:10 PM 69.6°F20.9°C 69.4°F20.8°C 99% Calm Calm -- 29.64 in1003.7 mb 0.03 in0.8 mm 0.00 in0.0 mm 0.30 in7.6 mm
09:20 PM 69.4°F20.8°C 69.2°F20.7°C 99% Calm Calm -- 29.63 in1003.4 mb 0.03 in0.8 mm 0.00 in0.0 mm 0.30 in7.6 mm
09:30 PM 69.6°F20.9°C 69.4°F20.8°C 99% Calm Calm -- 29.63 in1003.4 mb 0.01 in0.3 mm 0.00 in0.0 mm 0.30 in7.6 mm
09:40 PM 69.6°F20.9°C 69.4°F20.8°C 99% Calm Calm -- 29.63 in1003.4 mb 0.01 in0.3 mm 0.00 in0.0 mm 0.30 in7.6 mm
09:50 PM 69.4°F20.8°C 69.2°F20.7°C 99% Calm Calm -- 29.64 in1003.7 mb 0.00 in0.0 mm 0.00 in0.0 mm 0.30 in7.6 mm
10:00 PM 69.4°F20.8°C 69.2°F20.7°C 99% Calm Calm 0.7 mph1.1 kmh 29.64 in1003.7 mb 0.00 in0.0 mm 0.00 in0.0 mm 0.30 in7.6 mm
10:10 PM 69.3°F20.7°C 69.0°F20.6°C 99% Calm Calm -- 29.64 in1003.7 mb 0.00 in0.0 mm 0.00 in0.0 mm 0.30 in7.6 mm
10:20 PM 69.3°F20.7°C 69.0°F20.6°C 99% Calm Calm -- 29.64 in1003.7 mb 0.00 in0.0 mm 0.00 in0.0 mm 0.30 in7.6 mm
10:30 PM 69.3°F20.7°C 69.0°F20.6°C 99% Calm Calm -- 29.64 in1003.7 mb 0.00 in0.0 mm 0.00 in0.0 mm 0.30 in7.6 mm
10:40 PM 69.1°F20.6°C 68.8°F20.4°C 99% Calm Calm -- 29.64 in1003.7 mb 0.00 in0.0 mm 0.00 in0.0 mm 0.30 in7.6 mm
10:50 PM 68.9°F20.5°C 68.6°F20.3°C 99% Calm Calm -- 29.65 in1004.1 mb 0.00 in0.0 mm 0.00 in0.0 mm 0.30 in7.6 mm
11:00 PM 68.9°F20.5°C 68.6°F20.3°C 99% Calm Calm -- 29.64 in1003.7 mb 0.00 in0.0 mm 0.00 in0.0 mm 0.30 in7.6 mm
11:10 PM 68.9°F20.5°C 68.6°F20.3°C 99% Calm Calm -- 29.64 in1003.7 mb 0.00 in0.0 mm 0.00 in0.0 mm 0.30 in7.6 mm
11:20 PM 69.1°F20.6°C 68.8°F20.4°C 99% Calm Calm -- 29.64 in1003.7 mb 0.01 in0.3 mm 0.06 in1.5 mm 0.31 in7.9 mm
11:30 PM 69.1°F20.6°C 68.8°F20.4°C 99% Calm Calm -- 29.64 in1003.7 mb 0.01 in0.3 mm 0.00 in0.0 mm 0.31 in7.9 mm
11:40 PM 69.1°F20.6°C 68.8°F20.4°C 99% Calm Calm -- 29.63 in1003.4 mb 0.01 in0.3 mm 0.00 in0.0 mm 0.31 in7.9 mm
11:50 PM 69.1°F20.6°C 68.8°F20.4°C 99% Calm Calm -- 29.63 in1003.4 mb 0.01 in0.3 mm 0.00 in0.0 mm 0.31 in7.9 mm